Time;durP1;ratioP1;P1;durP2;ratioP2;P2;SDS_P1;SDS_P2;PMS_P1;PMS_P2;Temp;Humidity;BMP_temperature;BMP_pressure;BME280_temperature;BME280_humidity;BME280_pressure;Samples;Min_cycle;Max_cycle;Signal;HPM_P1;HPM_P2
2022/04/28 00:02:21;;;;;;;42.28;21.30;;;;;;;;;;6264170;28;20147;-61
2022/04/28 00:05:22;;;;;;;41.97;21.17;;;;;;;;;;6265797;28;20048;-61
2022/04/28 00:08:23;;;;;;;45.30;21.23;;;;;;;;;;6263974;28;20820;-61
2022/04/28 00:11:24;;;;;;;47.30;21.58;;;;;;;;;;6264973;28;20076;-61
2022/04/28 00:14:25;;;;;;;45.33;22.40;;;;;;;;;;6254448;28;20592;-59
2022/04/28 00:17:26;;;;;;;43.90;21.52;;;;;;;;;;6264000;28;20136;-61
2022/04/28 00:20:26;;;;;;;44.58;21.52;;;;;;;;;;6264117;28;20048;-60
2022/04/28 00:23:27;;;;;;;45.30;20.63;;;;;;;;;;6266515;28;20110;-59
2022/04/28 00:26:28;;;;;;;38.93;19.13;;;;;;;;;;6265796;28;20049;-60
2022/04/28 00:29:30;;;;;;;44.63;21.50;;;;;;;;;;6262400;28;20048;-61
2022/04/28 00:32:31;;;;;;;44.47;20.88;;;;;;;;;;6265429;28;20057;-61
2022/04/28 00:35:32;;;;;;;38.17;19.27;;;;;;;;;;6265569;28;20549;-59
2022/04/28 00:38:33;;;;;;;40.47;19.27;;;;;;;;;;6263964;28;20053;-58
2022/04/28 00:41:33;;;;;;;42.17;19.65;;;;;;;;;;6263536;28;20502;-58
2022/04/28 00:44:34;;;;;;;42.15;19.52;;;;;;;;;;6265563;28;20133;-59
2022/04/28 00:50:57;;;;;;;45.22;20.27;;;;;;;;;;6264321;28;20049;-58
2022/04/28 00:53:59;;;;;;;42.63;21.20;;;;;;;;;;6264355;28;20107;-60
2022/04/28 00:57:00;;;;;;;44.28;20.17;;;;;;;;;;6262843;28;20169;-60
2022/04/28 01:00:01;;;;;;;39.85;19.13;;;;;;;;;;6264052;28;20049;-60
2022/04/28 01:03:02;;;;;;;41.20;20.27;;;;;;;;;;6262425;28;20489;-58
2022/04/28 01:06:02;;;;;;;40.08;19.52;;;;;;;;;;6263736;28;20431;-61
2022/04/28 01:09:03;;;;;;;41.88;20.17;;;;;;;;;;6264202;28;20119;-60
2022/04/28 01:12:09;;;;;;;36.58;19.85;;;;;;;;;;6264545;28;20131;-60
2022/04/28 01:15:11;;;;;;;40.53;21.15;;;;;;;;;;6264980;28;20037;-60
2022/04/28 01:18:11;;;;;;;43.97;21.02;;;;;;;;;;6262128;28;20182;-60
2022/04/28 01:21:12;;;;;;;40.50;21.20;;;;;;;;;;6261255;28;20053;-61
2022/04/28 01:24:13;;;;;;;37.58;20.30;;;;;;;;;;6263306;28;20487;-59
2022/04/28 01:27:14;;;;;;;41.42;21.05;;;;;;;;;;6263804;28;20477;-61
2022/04/28 01:30:15;;;;;;;46.95;21.67;;;;;;;;;;6261152;28;20136;-59
2022/04/28 01:33:16;;;;;;;41.45;21.45;;;;;;;;;;6263198;28;20048;-59
2022/04/28 01:36:16;;;;;;;43.88;21.42;;;;;;;;;;6263194;28;20128;-59
2022/04/28 01:39:17;;;;;;;41.75;20.42;;;;;;;;;;6262257;28;20548;-59
2022/04/28 01:42:17;;;;;;;43.25;21.15;;;;;;;;;;6263198;28;20106;-59
2022/04/28 01:45:18;;;;;;;42.95;21.33;;;;;;;;;;6269220;28;20084;-59
2022/04/28 01:48:19;;;;;;;44.95;21.08;;;;;;;;;;6267177;28;20249;-59
2022/04/28 01:57:58;;;;;;;38.33;18.95;;;;;;;;;;6267057;28;20168;-59
2022/04/28 02:00:59;;;;;;;34.73;17.87;;;;;;;;;;6267673;28;20064;-59
2022/04/28 02:03:59;;;;;;;36.72;16.85;;;;;;;;;;6266429;28;20077;-59
2022/04/28 02:07:00;;;;;;;33.80;16.95;;;;;;;;;;6268737;28;20131;-59
2022/04/28 02:10:01;;;;;;;38.13;17.83;;;;;;;;;;6267018;28;20077;-59
2022/04/28 02:13:01;;;;;;;35.95;19.25;;;;;;;;;;6268040;28;20049;-61
2022/04/28 02:16:02;;;;;;;38.03;16.95;;;;;;;;;;6268947;28;20060;-60
2022/04/28 02:19:03;;;;;;;43.95;19.58;;;;;;;;;;6268921;28;20579;-60
2022/04/28 02:22:04;;;;;;;36.95;19.23;;;;;;;;;;6267387;28;20045;-60
2022/04/28 02:25:05;;;;;;;36.53;18.52;;;;;;;;;;6266972;28;20096;-60
2022/04/28 02:28:06;;;;;;;36.15;17.63;;;;;;;;;;6266233;28;20073;-60
2022/04/28 02:31:06;;;;;;;39.05;19.27;;;;;;;;;;6266940;28;20055;-60
2022/04/28 02:34:07;;;;;;;39.97;19.42;;;;;;;;;;6267213;28;20067;-60
2022/04/28 02:37:08;;;;;;;41.00;20.08;;;;;;;;;;6265617;28;20498;-60
2022/04/28 02:40:09;;;;;;;43.55;21.55;;;;;;;;;;6266442;28;20067;-60
2022/04/28 02:43:10;;;;;;;38.50;19.02;;;;;;;;;;6265686;28;20041;-60
2022/04/28 02:46:11;;;;;;;39.67;20.05;;;;;;;;;;6268112;28;20052;-60
2022/04/28 02:49:15;;;;;;;39.65;20.08;;;;;;;;;;6266472;28;20124;-61
2022/04/28 02:52:16;;;;;;;41.92;21.02;;;;;;;;;;6267217;28;20049;-60
2022/04/28 02:55:16;;;;;;;40.78;19.77;;;;;;;;;;6265480;28;20500;-60
2022/04/28 02:58:17;;;;;;;38.67;18.60;;;;;;;;;;6268042;28;20431;-60
2022/04/28 03:01:17;;;;;;;35.45;17.67;;;;;;;;;;6266832;28;20152;-60
2022/04/28 03:04:18;;;;;;;40.17;21.00;;;;;;;;;;6266025;28;20044;-60
2022/04/28 03:10:49;;;;;;;49.60;23.67;;;;;;;;;;6262850;28;20135;-60
2022/04/28 03:13:50;;;;;;;50.67;23.98;;;;;;;;;;6264831;28;20045;-59
2022/04/28 03:16:51;;;;;;;43.42;21.55;;;;;;;;;;6266532;28;20107;-60
2022/04/28 03:19:51;;;;;;;46.70;23.40;;;;;;;;;;6266504;28;20136;-60
2022/04/28 03:22:52;;;;;;;45.28;22.20;;;;;;;;;;6266508;28;20045;-60
2022/04/28 03:25:53;;;;;;;46.33;22.27;;;;;;;;;;6264198;28;20179;-60
2022/04/28 03:28:53;;;;;;;41.92;20.98;;;;;;;;;;6265583;28;20061;-60
2022/04/28 03:31:54;;;;;;;40.88;20.90;;;;;;;;;;6266435;28;20132;-59
2022/04/28 03:34:54;;;;;;;49.95;22.75;;;;;;;;;;6263907;28;20052;-61
2022/04/28 03:37:58;;;;;;;49.63;23.55;;;;;;;;;;6263825;28;20584;-61
2022/04/28 03:40:58;;;;;;;45.72;21.67;;;;;;;;;;6264174;28;20075;-60
2022/04/28 03:43:59;;;;;;;47.42;22.58;;;;;;;;;;6264722;28;20045;-60
2022/04/28 03:46:59;;;;;;;48.67;22.60;;;;;;;;;;6265148;28;20111;-59
2022/04/28 03:50:00;;;;;;;53.58;23.80;;;;;;;;;;6266257;28;20469;-59
2022/04/28 03:53:00;;;;;;;54.22;25.45;;;;;;;;;;6265285;28;20045;-59
2022/04/28 03:56:01;;;;;;;45.15;23.60;;;;;;;;;;6263477;28;20144;-59
2022/04/28 03:59:03;;;;;;;48.58;23.60;;;;;;;;;;6265599;28;20064;-60
2022/04/28 04:02:03;;;;;;;46.50;23.50;;;;;;;;;;6265397;28;20045;-59
2022/04/28 04:05:05;;;;;;;50.60;22.52;;;;;;;;;;6262801;28;20333;-59
2022/04/28 04:08:06;;;;;;;47.28;22.80;;;;;;;;;;6266471;28;20056;-60
2022/04/28 04:11:08;;;;;;;50.20;24.08;;;;;;;;;;6265257;28;20045;-60
2022/04/28 04:14:08;;;;;;;49.70;23.43;;;;;;;;;;6264302;28;20041;-59
2022/04/28 04:17:09;;;;;;;42.55;21.80;;;;;;;;;;6263986;28;20132;-59
2022/04/28 04:20:10;;;;;;;47.95;23.10;;;;;;;;;;6245265;28;20463;-60
2022/04/28 04:23:10;;;;;;;41.35;20.95;;;;;;;;;;6261766;28;20064;-60
2022/04/28 04:26:11;;;;;;;42.78;22.35;;;;;;;;;;6264214;28;20136;-59
2022/04/28 04:29:12;;;;;;;43.60;23.13;;;;;;;;;;6265731;28;20611;-60
2022/04/28 04:32:18;;;;;;;50.30;26.15;;;;;;;;;;6265073;28;20175;-59
2022/04/28 04:35:19;;;;;;;54.13;25.75;;;;;;;;;;6265256;28;20045;-61
2022/04/28 04:38:20;;;;;;;52.58;26.70;;;;;;;;;;6265602;28;20148;-59
2022/04/28 04:41:20;;;;;;;58.35;26.38;;;;;;;;;;6267545;28;20045;-59
2022/04/28 04:44:21;;;;;;;50.35;24.15;;;;;;;;;;6265297;28;20052;-59
2022/04/28 04:47:21;;;;;;;52.90;25.52;;;;;;;;;;6264299;28;20045;-59
2022/04/28 04:50:22;;;;;;;49.03;23.90;;;;;;;;;;6264805;28;20037;-58
2022/04/28 04:53:23;;;;;;;49.85;25.15;;;;;;;;;;6265265;28;20069;-57
2022/04/28 04:56:23;;;;;;;51.92;25.25;;;;;;;;;;6263492;28;20123;-57
2022/04/28 04:59:24;;;;;;;54.25;26.80;;;;;;;;;;6264683;28;20136;-59
2022/04/28 05:02:24;;;;;;;56.58;28.13;;;;;;;;;;6261464;28;20518;-59
2022/04/28 05:05:25;;;;;;;52.17;27.70;;;;;;;;;;6261355;28;20424;-60
2022/04/28 05:08:25;;;;;;;59.05;27.98;;;;;;;;;;6259206;28;20049;-60
2022/04/28 05:11:26;;;;;;;52.40;29.70;;;;;;;;;;6261866;28;20442;-60
2022/04/28 05:14:27;;;;;;;55.45;30.83;;;;;;;;;;6261356;28;20052;-59
2022/04/28 05:17:27;;;;;;;56.22;29.38;;;;;;;;;;6261684;28;20041;-60
2022/04/28 05:20:28;;;;;;;54.90;28.67;;;;;;;;;;6266586;28;20047;-59
2022/04/28 05:23:28;;;;;;;57.45;29.23;;;;;;;;;;6266329;28;20484;-59
2022/04/28 05:26:29;;;;;;;52.55;27.65;;;;;;;;;;6266631;28;20132;-60
2022/04/28 05:29:29;;;;;;;51.45;27.20;;;;;;;;;;6267942;28;20404;-60
2022/04/28 05:32:30;;;;;;;54.10;26.48;;;;;;;;;;6267228;28;20079;-59
2022/04/28 05:35:34;;;;;;;45.33;25.58;;;;;;;;;;6268323;28;20076;-60
2022/04/28 05:38:36;;;;;;;45.15;23.73;;;;;;;;;;6268956;28;20510;-60
2022/04/28 05:41:37;;;;;;;42.00;20.30;;;;;;;;;;6268431;28;20064;-60
2022/04/28 05:47:57;;;;;;;35.83;18.50;;;;;;;;;;6267835;28;20412;-60
2022/04/28 05:50:58;;;;;;;36.85;19.88;;;;;;;;;;6268576;28;20073;-60
2022/04/28 05:53:59;;;;;;;39.40;21.10;;;;;;;;;;6265075;28;20048;-60
2022/04/28 05:57:00;;;;;;;44.45;24.15;;;;;;;;;;6266300;28;20072;-60
2022/04/28 06:00:01;;;;;;;42.00;21.70;;;;;;;;;;6266676;28;20448;-60
2022/04/28 06:03:02;;;;;;;44.60;22.45;;;;;;;;;;6267502;28;20051;-60
2022/04/28 06:06:02;;;;;;;43.30;23.25;;;;;;;;;;6264357;28;20224;-60
2022/04/28 06:09:03;;;;;;;43.33;22.80;;;;;;;;;;6266068;28;20114;-60
2022/04/28 06:12:04;;;;;;;42.15;23.08;;;;;;;;;;6265140;28;20051;-60
2022/04/28 06:15:05;;;;;;;46.70;23.23;;;;;;;;;;6264266;28;20524;-60
2022/04/28 06:18:06;;;;;;;43.75;21.65;;;;;;;;;;6265688;28;20049;-60
2022/04/28 06:21:06;;;;;;;40.05;20.10;;;;;;;;;;6267494;28;20128;-60
2022/04/28 06:24:07;;;;;;;39.95;18.50;;;;;;;;;;6265643;28;20139;-60
2022/04/28 06:27:07;;;;;;;34.80;16.52;;;;;;;;;;6266986;28;20135;-60
2022/04/28 06:30:09;;;;;;;32.95;16.70;;;;;;;;;;6264721;28;20043;-60
2022/04/28 06:33:09;;;;;;;33.25;17.05;;;;;;;;;;6264149;28;20053;-60
2022/04/28 06:36:10;;;;;;;25.38;14.75;;;;;;;;;;6264450;28;20044;-61
2022/04/28 06:39:11;;;;;;;30.08;16.30;;;;;;;;;;6263113;28;20131;-59
2022/04/28 06:42:12;;;;;;;33.38;15.90;;;;;;;;;;6266065;28;20045;-60
2022/04/28 06:45:13;;;;;;;21.52;11.40;;;;;;;;;;6264979;28;20160;-60
2022/04/28 06:48:14;;;;;;;23.75;12.00;;;;;;;;;;6264872;28;20404;-60
2022/04/28 06:51:15;;;;;;;23.38;11.77;;;;;;;;;;6262823;28;20045;-61
2022/04/28 06:54:15;;;;;;;19.02;10.20;;;;;;;;;;6261178;28;20041;-60
2022/04/28 06:57:16;;;;;;;19.77;10.45;;;;;;;;;;6262922;28;20173;-60
2022/04/28 07:00:17;;;;;;;17.17;8.90;;;;;;;;;;6264416;28;20049;-60
2022/04/28 07:03:18;;;;;;;13.02;7.32;;;;;;;;;;6263686;28;20081;-60
2022/04/28 07:06:19;;;;;;;14.05;7.18;;;;;;;;;;6264706;28;20044;-60
2022/04/28 07:09:19;;;;;;;13.40;8.23;;;;;;;;;;6284025;28;20527;-60
2022/04/28 07:12:20;;;;;;;19.83;9.43;;;;;;;;;;6266457;28;20045;-60
2022/04/28 07:15:21;;;;;;;13.98;7.07;;;;;;;;;;6264064;28;20073;-60
2022/04/28 07:18:22;;;;;;;10.50;6.00;;;;;;;;;;6265939;28;20094;-61
2022/04/28 07:21:23;;;;;;;12.80;6.90;;;;;;;;;;6263860;28;20140;-60
2022/04/28 07:24:23;;;;;;;16.65;9.18;;;;;;;;;;6245242;28;20715;-61
2022/04/28 07:27:24;;;;;;;12.55;6.10;;;;;;;;;;6265049;28;20483;-60
2022/04/28 07:30:27;;;;;;;12.10;7.03;;;;;;;;;;6246906;28;20126;-60
2022/04/28 07:33:27;;;;;;;16.75;9.55;;;;;;;;;;6261527;28;20131;-60
2022/04/28 07:36:29;;;;;;;16.73;9.37;;;;;;;;;;6230150;28;20061;-60
2022/04/28 07:39:30;;;;;;;17.57;9.03;;;;;;;;;;6264542;28;20473;-61
2022/04/28 07:42:33;;;;;;;15.48;8.63;;;;;;;;;;6263698;28;20053;-60
2022/04/28 07:45:34;;;;;;;12.85;6.93;;;;;;;;;;6260075;28;20075;-60
2022/04/28 07:48:36;;;;;;;18.55;9.82;;;;;;;;;;6246350;28;20511;-60
2022/04/28 07:51:37;;;;;;;18.52;9.02;;;;;;;;;;6263695;28;20118;-60
2022/04/28 07:54:38;;;;;;;17.38;9.05;;;;;;;;;;6276350;28;20550;-61
2022/04/28 07:57:41;;;;;;;14.70;8.20;;;;;;;;;;6244998;28;20180;-60
2022/04/28 08:00:42;;;;;;;15.32;8.57;;;;;;;;;;6256028;28;20106;-61
2022/04/28 08:03:43;;;;;;;14.73;7.70;;;;;;;;;;6278793;28;20535;-61
2022/04/28 08:06:44;;;;;;;14.07;7.30;;;;;;;;;;6265744;28;20128;-61
2022/04/28 08:09:45;;;;;;;14.27;7.75;;;;;;;;;;6264221;28;20051;-60
2022/04/28 08:12:45;;;;;;;16.33;8.38;;;;;;;;;;6263666;28;20045;-61
2022/04/28 08:15:46;;;;;;;12.23;7.50;;;;;;;;;;6265391;28;20077;-61
2022/04/28 08:18:47;;;;;;;11.30;6.45;;;;;;;;;;6263594;28;20066;-60
2022/04/28 08:21:49;;;;;;;13.40;6.85;;;;;;;;;;6244691;28;20048;-60
2022/04/28 08:24:50;;;;;;;;;;;;;;;;;;6262418;28;20033;-60
2022/04/28 08:27:50;;;;;;;12.65;7.15;;;;;;;;;;6264304;28;19920;-60
2022/04/28 08:30:51;;;;;;;14.87;7.73;;;;;;;;;;6261979;28;20543;-61
2022/04/28 08:33:54;;;;;;;14.18;7.97;;;;;;;;;;6259426;28;20155;-61
2022/04/28 08:36:54;;;;;;;;;;;;;;;;;;6261810;28;20076;-60
2022/04/28 08:39:55;;;;;;;12.98;7.50;;;;;;;;;;6264884;28;19921;-61
2022/04/28 08:42:58;;;;;;;15.95;8.95;;;;;;;;;;6262046;28;20447;-61
2022/04/28 08:49:32;;;;;;;16.48;8.27;;;;;;;;;;6261606;28;20047;-61
2022/04/28 08:52:36;;;;;;;14.45;7.95;;;;;;;;;;6246305;28;20541;-60
2022/04/28 08:55:41;;;;;;;15.20;8.77;;;;;;;;;;6262702;28;20068;-61
2022/04/28 08:58:42;;;;;;;13.88;7.68;;;;;;;;;;6262475;28;20049;-61
2022/04/28 09:01:43;;;;;;;12.45;7.72;;;;;;;;;;6262850;28;20072;-61
2022/04/28 09:04:44;;;;;;;17.55;7.65;;;;;;;;;;6262310;28;20051;-60
2022/04/28 09:07:47;;;;;;;14.20;6.82;;;;;;;;;;6278283;28;20438;-61
2022/04/28 09:10:48;;;;;;;13.85;6.93;;;;;;;;;;6260863;28;20045;-60
2022/04/28 09:14:12;;;;;;;39.13;8.32;;;;;;;;;;6278551;28;20049;-60
2022/04/28 09:17:13;;;;;;;11.90;7.10;;;;;;;;;;6263337;28;20040;-60
2022/04/28 09:20:15;;;;;;;11.98;7.07;;;;;;;;;;6263868;28;20051;-60
2022/04/28 09:23:18;;;;;;;13.70;7.13;;;;;;;;;;6262261;28;20049;-60
2022/04/28 09:26:23;;;;;;;10.65;6.25;;;;;;;;;;6261301;28;20048;-59
2022/04/28 09:29:29;;;;;;;12.10;6.63;;;;;;;;;;6262169;28;20037;-60
2022/04/28 09:32:29;;;;;;;10.55;6.20;;;;;;;;;;6260587;28;20658;-60
2022/04/28 09:35:30;;;;;;;14.05;7.75;;;;;;;;;;6262662;28;20158;-60
2022/04/28 09:38:32;;;;;;;14.23;7.00;;;;;;;;;;6262216;28;20424;-61
2022/04/28 09:44:56;;;;;;;15.07;7.50;;;;;;;;;;6259213;28;20036;-60
2022/04/28 09:48:03;;;;;;;13.07;7.22;;;;;;;;;;6258712;28;20064;-59
2022/04/28 09:51:09;;;;;;;12.13;6.50;;;;;;;;;;6259224;28;20522;-60
2022/04/28 09:54:13;;;;;;;11.13;6.80;;;;;;;;;;6274301;28;20106;-60
2022/04/28 09:57:14;;;;;;;12.75;6.85;;;;;;;;;;6259753;28;20522;-60
2022/04/28 10:00:16;;;;;;;11.07;6.45;;;;;;;;;;6240199;28;20048;-61
2022/04/28 10:03:18;;;;;;;13.70;7.35;;;;;;;;;;6261812;28;20048;-60
2022/04/28 10:06:19;;;;;;;11.63;6.90;;;;;;;;;;6265103;28;20049;-60
2022/04/28 10:09:20;;;;;;;12.15;7.00;;;;;;;;;;6262017;28;20052;-60
2022/04/28 10:12:25;;;;;;;12.10;6.63;;;;;;;;;;6264561;28;20040;-60
2022/04/28 10:15:28;;;;;;;9.63;5.93;;;;;;;;;;6264658;28;20055;-61
2022/04/28 10:18:37;;;;;;;10.25;6.32;;;;;;;;;;6264751;28;20057;-60
2022/04/28 10:21:49;;;;;;;13.25;5.97;;;;;;;;;;6263257;28;20732;-61
2022/04/28 10:35:08;;;;;;;12.57;6.07;;;;;;;;;;6263813;28;20791;-61
2022/04/28 10:38:31;;;;;;;12.43;5.88;;;;;;;;;;6267985;28;20145;-60
2022/04/28 10:41:31;;;;;;;14.32;7.13;;;;;;;;;;6266257;28;20476;-60
2022/04/28 10:44:34;;;;;;;10.32;6.22;;;;;;;;;;6264515;28;20084;-60
2022/04/28 10:47:37;;;;;;;12.95;6.47;;;;;;;;;;6260762;28;20124;-61
2022/04/28 10:50:38;;;;;;;11.75;5.95;;;;;;;;;;6267628;28;20049;-61
2022/04/28 10:53:58;;;;;;;14.27;6.77;;;;;;;;;;6267146;28;20095;-60
2022/04/28 10:57:02;;;;;;;12.38;7.18;;;;;;;;;;6259896;28;20305;-60
2022/04/28 11:00:04;;;;;;;12.27;6.25;;;;;;;;;;6267315;28;20114;-60
2022/04/28 11:03:04;;;;;;;12.38;5.90;;;;;;;;;;6268753;28;20068;-61
2022/04/28 11:06:13;;;;;;;11.57;6.22;;;;;;;;;;6264990;28;20045;-60
2022/04/28 11:09:13;;;;;;;13.05;7.22;;;;;;;;;;6264746;28;20052;-60
2022/04/28 11:12:18;;;;;;;12.13;6.32;;;;;;;;;;6265909;28;20429;-60
2022/04/28 11:15:20;;;;;;;9.20;5.50;;;;;;;;;;6264689;28;20393;-60
2022/04/28 11:18:21;;;;;;;11.43;6.43;;;;;;;;;;6264327;28;20090;-59
2022/04/28 11:21:22;;;;;;;11.57;6.53;;;;;;;;;;6263992;28;20055;-60
2022/04/28 11:24:26;;;;;;;14.00;6.93;;;;;;;;;;6261076;28;20056;-60
2022/04/28 11:27:28;;;;;;;12.95;6.43;;;;;;;;;;6264859;28;20803;-59
2022/04/28 11:30:29;;;;;;;;;;;;;;;;;;6264228;28;20423;-60
2022/04/28 11:33:30;;;;;;;11.20;5.70;;;;;;;;;;6266725;28;19967;-60
2022/04/28 11:36:31;;;;;;;12.35;6.63;;;;;;;;;;6280862;28;20049;-60
2022/04/28 11:39:34;;;;;;;14.60;6.30;;;;;;;;;;6262558;28;20182;-60
2022/04/28 11:42:36;;;;;;;10.07;6.07;;;;;;;;;;6264846;28;20049;-60
2022/04/28 11:45:38;;;;;;;8.90;5.60;;;;;;;;;;6265566;28;20120;-60
2022/04/28 11:48:38;;;;;;;;;;;;;;;;;;6266047;28;20145;-60
2022/04/28 11:51:39;;;;;;;10.27;5.75;;;;;;;;;;6264944;28;19920;-60
2022/04/28 11:54:43;;;;;;;13.07;5.85;;;;;;;;;;6266417;28;20055;-60
2022/04/28 11:57:44;;;;;;;11.25;6.13;;;;;;;;;;6265128;28;20106;-60
2022/04/28 12:00:46;;;;;;;13.02;6.63;;;;;;;;;;6265207;28;20100;-60
2022/04/28 12:03:55;;;;;;;10.13;5.80;;;;;;;;;;6265652;28;20064;-61
2022/04/28 12:06:56;;;;;;;15.55;7.80;;;;;;;;;;6260247;28;20045;-60
2022/04/28 12:20:21;;;;;;;9.98;5.50;;;;;;;;;;6263988;28;20342;-60
2022/04/28 12:23:32;;;;;;;11.35;6.45;;;;;;;;;;6262520;28;20491;-59
2022/04/28 12:26:34;;;;;;;9.60;5.85;;;;;;;;;;6264847;28;20191;-60
2022/04/28 12:29:53;;;;;;;10.98;6.22;;;;;;;;;;6265604;28;20084;-60
2022/04/28 12:32:54;;;;;;;8.95;5.72;;;;;;;;;;6263535;28;20095;-60
2022/04/28 12:36:01;;;;;;;11.98;5.95;;;;;;;;;;6262465;28;20496;-60
2022/04/28 12:39:02;;;;;;;8.23;5.18;;;;;;;;;;6263790;28;20083;-60
2022/04/28 12:42:12;;;;;;;11.52;6.00;;;;;;;;;;6263535;28;20476;-60
2022/04/28 12:45:13;;;;;;;10.02;5.55;;;;;;;;;;6262782;28;20076;-60
2022/04/28 12:48:24;;;;;;;10.15;5.32;;;;;;;;;;6260271;28;20055;-60
2022/04/28 12:51:28;;;;;;;10.07;5.80;;;;;;;;;;6263596;28;20114;-60
2022/04/28 12:54:36;;;;;;;9.73;5.20;;;;;;;;;;6260853;28;20587;-60
2022/04/28 12:57:37;;;;;;;7.70;5.15;;;;;;;;;;6262194;28;20480;-61
2022/04/28 13:00:38;;;;;;;8.45;4.90;;;;;;;;;;6263859;28;20159;-60
2022/04/28 13:03:40;;;;;;;8.43;5.13;;;;;;;;;;6263031;28;20041;-60
2022/04/28 13:06:44;;;;;;;9.07;5.25;;;;;;;;;;6260296;28;20571;-59
2022/04/28 13:09:44;;;;;;;10.65;5.10;;;;;;;;;;6260067;28;20108;-60
2022/04/28 13:12:45;;;;;;;7.88;4.95;;;;;;;;;;6260719;28;20080;-60
2022/04/28 13:15:45;;;;;;;8.13;4.82;;;;;;;;;;6258794;28;20049;-59
2022/04/28 13:18:47;;;;;;;10.45;5.10;;;;;;;;;;6260222;28;20427;-59
2022/04/28 13:21:48;;;;;;;9.32;5.10;;;;;;;;;;6259422;28;20048;-60
2022/04/28 13:24:49;;;;;;;10.00;5.38;;;;;;;;;;6257998;28;20128;-60
2022/04/28 13:27:49;;;;;;;13.55;7.95;;;;;;;;;;6258359;28;20045;-60
2022/04/28 13:30:51;;;;;;;11.13;6.45;;;;;;;;;;6258938;28;20115;-60
2022/04/28 13:33:53;;;;;;;10.25;5.85;;;;;;;;;;6222547;28;1110446;-60
2022/04/28 13:36:53;;;;;;;11.15;6.15;;;;;;;;;;6258786;28;20451;-60
2022/04/28 13:39:54;;;;;;;8.05;5.63;;;;;;;;;;6263373;28;20076;-60
2022/04/28 13:42:55;;;;;;;9.13;5.25;;;;;;;;;;6262910;28;20128;-60
2022/04/28 13:45:55;;;;;;;10.98;5.20;;;;;;;;;;6260294;28;20049;-60
2022/04/28 13:48:56;;;;;;;11.68;5.50;;;;;;;;;;6258536;28;20049;-60
2022/04/28 13:51:57;;;;;;;9.50;5.27;;;;;;;;;;6266632;28;20466;-60
2022/04/28 13:54:58;;;;;;;11.15;5.45;;;;;;;;;;6266743;28;20132;-60
2022/04/28 13:57:58;;;;;;;8.73;5.68;;;;;;;;;;6261983;28;20047;-60
2022/04/28 14:00:59;;;;;;;11.13;5.78;;;;;;;;;;6261491;28;20113;-60
2022/04/28 14:04:03;;;;;;;7.78;5.45;;;;;;;;;;6263990;28;20048;-59
2022/04/28 14:07:03;;;;;;;9.00;5.45;;;;;;;;;;6262573;28;20045;-60
2022/04/28 14:10:05;;;;;;;11.10;6.15;;;;;;;;;;6262750;28;20080;-61
2022/04/28 14:13:06;;;;;;;8.20;5.25;;;;;;;;;;6262340;28;20733;-59
2022/04/28 14:16:06;;;;;;;12.82;5.55;;;;;;;;;;6263371;28;20045;-60
2022/04/28 14:19:07;;;;;;;9.10;4.88;;;;;;;;;;6265281;28;20064;-60
2022/04/28 14:22:08;;;;;;;10.07;5.07;;;;;;;;;;6263030;28;20508;-60
2022/04/28 14:25:09;;;;;;;11.25;5.80;;;;;;;;;;6264795;28;20055;-61
2022/04/28 14:28:09;;;;;;;14.52;6.65;;;;;;;;;;6262534;28;20235;-60
2022/04/28 14:31:10;;;;;;;9.55;5.30;;;;;;;;;;6265441;28;20508;-60
2022/04/28 14:34:11;;;;;;;9.02;5.90;;;;;;;;;;6264995;28;20377;-60
2022/04/28 14:37:12;;;;;;;9.50;5.55;;;;;;;;;;6266940;28;20140;-60
2022/04/28 14:40:13;;;;;;;11.80;6.57;;;;;;;;;;6265522;28;20555;-60
2022/04/28 14:43:14;;;;;;;6.93;4.22;;;;;;;;;;6266183;28;20076;-60
2022/04/28 14:46:15;;;;;;;7.50;4.40;;;;;;;;;;6263773;28;20114;-60
2022/04/28 14:52:35;;;;;;;8.07;5.03;;;;;;;;;;6263060;28;20110;-61
2022/04/28 14:55:36;;;;;;;13.02;6.38;;;;;;;;;;6265820;28;20514;-61
2022/04/28 14:58:37;;;;;;;11.80;6.22;;;;;;;;;;6265916;28;20136;-60
2022/04/28 15:01:38;;;;;;;8.18;4.95;;;;;;;;;;6261884;28;20053;-61
2022/04/28 15:04:39;;;;;;;11.88;5.13;;;;;;;;;;6260993;28;20045;-61
2022/04/28 15:07:40;;;;;;;31.13;13.15;;;;;;;;;;6261973;28;20049;-60
2022/04/28 15:10:41;;;;;;;23.65;10.35;;;;;;;;;;6263905;28;20389;-60
2022/04/28 15:13:41;;;;;;;9.15;5.20;;;;;;;;;;6261227;28;20128;-61
2022/04/28 15:16:42;;;;;;;10.40;5.07;;;;;;;;;;6263382;28;20049;-61
2022/04/28 15:19:43;;;;;;;14.82;7.50;;;;;;;;;;6260578;28;20094;-61
2022/04/28 15:22:44;;;;;;;34.83;13.32;;;;;;;;;;6263905;28;20416;-60
2022/04/28 15:25:44;;;;;;;16.97;7.43;;;;;;;;;;6261753;28;20057;-60
2022/04/28 15:28:48;;;;;;;7.40;4.40;;;;;;;;;;6262519;28;20507;-60
2022/04/28 15:31:49;;;;;;;12.55;5.97;;;;;;;;;;6264788;28;20053;-61
2022/04/28 15:34:49;;;;;;;15.55;6.60;;;;;;;;;;6265213;28;20068;-60
2022/04/28 15:37:50;;;;;;;9.35;5.10;;;;;;;;;;6265082;28;20179;-60
2022/04/28 15:40:50;;;;;;;9.73;5.75;;;;;;;;;;6266378;28;20125;-60
2022/04/28 15:43:51;;;;;;;7.93;4.70;;;;;;;;;;6265412;28;20051;-61
2022/04/28 15:46:52;;;;;;;10.88;5.05;;;;;;;;;;6264845;28;20045;-61
2022/04/28 15:49:52;;;;;;;8.73;4.78;;;;;;;;;;6263213;28;20052;-61
2022/04/28 15:52:53;;;;;;;13.63;6.60;;;;;;;;;;6262617;28;20049;-60
2022/04/28 15:55:53;;;;;;;12.38;7.10;;;;;;;;;;6260498;28;20135;-61
2022/04/28 15:58:54;;;;;;;14.10;7.25;;;;;;;;;;6262302;28;20049;-60
2022/04/28 16:01:55;;;;;;;35.42;15.02;;;;;;;;;;6265684;28;20055;-60
2022/04/28 16:04:55;;;;;;;11.70;5.33;;;;;;;;;;6267326;28;20057;-61
2022/04/28 16:07:56;;;;;;;12.73;6.07;;;;;;;;;;6263086;28;20136;-61
2022/04/28 16:10:57;;;;;;;9.48;5.05;;;;;;;;;;6255747;28;20057;-61
2022/04/28 16:13:57;;;;;;;15.18;6.80;;;;;;;;;;6250700;28;20794;-60
2022/04/28 16:16:58;;;;;;;15.40;5.78;;;;;;;;;;6249598;28;20045;-62
2022/04/28 16:19:58;;;;;;;17.38;7.03;;;;;;;;;;6251002;28;20045;-62
2022/04/28 16:23:02;;;;;;;11.32;4.82;;;;;;;;;;6251587;28;20056;-63
2022/04/28 16:26:04;;;;;;;11.98;6.25;;;;;;;;;;6252316;28;20393;-61
2022/04/28 16:29:05;;;;;;;11.93;5.38;;;;;;;;;;6250601;28;20148;-60
2022/04/28 16:32:06;;;;;;;13.65;4.50;;;;;;;;;;6253357;28;20091;-61
2022/04/28 16:35:07;;;;;;;8.65;4.15;;;;;;;;;;6254005;28;20126;-61
2022/04/28 16:38:08;;;;;;;9.40;3.87;;;;;;;;;;6252459;28;20049;-66
2022/04/28 16:41:08;;;;;;;10.30;5.03;;;;;;;;;;6249541;28;20107;-63
2022/04/28 16:44:09;;;;;;;10.63;5.18;;;;;;;;;;6253624;28;20147;-63
2022/04/28 16:47:11;;;;;;;9.82;4.80;;;;;;;;;;6251203;28;20119;-63
2022/04/28 16:50:11;;;;;;;8.77;4.18;;;;;;;;;;6252090;28;20045;-64
2022/04/28 16:53:12;;;;;;;8.93;4.47;;;;;;;;;;6252906;28;20902;-64
2022/04/28 16:56:13;;;;;;;9.18;4.75;;;;;;;;;;6252100;28;20048;-63
2022/04/28 16:59:14;;;;;;;8.93;5.10;;;;;;;;;;6248549;28;20946;-62
2022/04/28 17:02:14;;;;;;;9.07;4.95;;;;;;;;;;6249143;28;20049;-63
2022/04/28 17:05:15;;;;;;;11.50;5.38;;;;;;;;;;6250657;28;20880;-66
2022/04/28 17:08:16;;;;;;;8.93;6.00;;;;;;;;;;6250856;28;20059;-61
2022/04/28 17:11:17;;;;;;;8.27;5.15;;;;;;;;;;6250876;28;20053;-62
2022/04/28 17:14:18;;;;;;;10.40;6.15;;;;;;;;;;6252055;28;20053;-61
2022/04/28 17:17:19;;;;;;;12.80;6.20;;;;;;;;;;6248960;28;20566;-62
2022/04/28 17:20:19;;;;;;;9.75;6.57;;;;;;;;;;6250828;28;20052;-66
2022/04/28 17:23:20;;;;;;;15.18;7.05;;;;;;;;;;6250319;28;21096;-68
2022/04/28 17:26:21;;;;;;;12.63;7.55;;;;;;;;;;6250774;28;21451;-64
2022/04/28 17:29:23;;;;;;;14.27;7.05;;;;;;;;;;6252679;28;20048;-61
2022/04/28 17:32:24;;;;;;;10.98;7.20;;;;;;;;;;6261951;28;20045;-62
2022/04/28 17:35:25;;;;;;;13.40;6.90;;;;;;;;;;6261293;28;20415;-62
2022/04/28 17:38:26;;;;;;;12.70;7.40;;;;;;;;;;6261103;28;20084;-61
2022/04/28 17:41:26;;;;;;;13.38;6.93;;;;;;;;;;6263904;28;20550;-61
2022/04/28 17:44:27;;;;;;;15.20;7.53;;;;;;;;;;6264319;28;20040;-61
2022/04/28 17:47:28;;;;;;;13.25;7.05;;;;;;;;;;6260851;28;20060;-61
2022/04/28 17:50:29;;;;;;;14.07;7.57;;;;;;;;;;6264276;28;20037;-60
2022/04/28 17:53:30;;;;;;;13.63;8.32;;;;;;;;;;6263478;28;20044;-60
2022/04/28 17:59:56;;;;;;;14.18;8.35;;;;;;;;;;6259307;28;20400;-60
2022/04/28 18:02:58;;;;;;;14.73;8.20;;;;;;;;;;6262406;28;20185;-60
2022/04/28 18:05:59;;;;;;;17.20;9.10;;;;;;;;;;6261452;28;20080;-59
2022/04/28 18:08:59;;;;;;;20.27;10.00;;;;;;;;;;6261237;28;20152;-60
2022/04/28 18:12:00;;;;;;;18.60;9.25;;;;;;;;;;6262743;28;20511;-59
2022/04/28 18:15:01;;;;;;;18.92;9.80;;;;;;;;;;6259650;28;20141;-60
2022/04/28 18:18:02;;;;;;;19.77;9.57;;;;;;;;;;6260377;28;20059;-59
2022/04/28 18:21:03;;;;;;;16.10;9.18;;;;;;;;;;6258462;28;20152;-60
2022/04/28 18:24:05;;;;;;;15.05;8.82;;;;;;;;;;6262112;28;20049;-59
2022/04/28 18:27:08;;;;;;;16.90;9.15;;;;;;;;;;6265471;28;20055;-59
2022/04/28 18:30:10;;;;;;;21.17;10.32;;;;;;;;;;6267085;28;20075;-59
2022/04/28 18:33:11;;;;;;;22.38;10.57;;;;;;;;;;6267391;28;20053;-59
2022/04/28 18:46:09;;;;;;;20.33;11.27;;;;;;;;;;6263438;28;20469;-60
2022/04/28 18:49:10;;;;;;;23.02;11.38;;;;;;;;;;6267988;28;20049;-59
2022/04/28 18:52:11;;;;;;;22.85;11.45;;;;;;;;;;6265950;28;20076;-59